createdAt,value
2023-02-14T00:00:15.249Z,102631.00
2023-02-14T00:01:17.007Z,102631.84
2023-02-14T00:02:20.300Z,102624.06
2023-02-14T00:03:21.992Z,102633.47
2023-02-14T00:04:25.065Z,102621.03
2023-02-14T00:05:26.750Z,102628.38
2023-02-14T00:06:32.689Z,102625.03
2023-02-14T00:07:35.278Z,102621.16
2023-02-14T00:08:37.086Z,102613.09
2023-02-14T00:09:39.621Z,102629.22
2023-02-14T00:10:44.154Z,102627.22
2023-02-14T00:11:48.081Z,102619.56
2023-02-14T00:12:49.736Z,102618.38
2023-02-14T00:14:06.468Z,102620.25
2023-02-14T00:15:25.708Z,102615.81
2023-02-14T00:16:27.315Z,102625.09
2023-02-14T00:17:29.052Z,102619.91
2023-02-14T00:18:45.566Z,102607.09
2023-02-14T00:19:48.460Z,102614.47
2023-02-14T00:20:50.045Z,102630.41
2023-02-14T00:21:52.711Z,102609.97
2023-02-14T00:22:55.722Z,102629.41
2023-02-14T00:23:57.426Z,102605.50
2023-02-14T00:24:59.967Z,102610.91
2023-02-14T00:26:01.726Z,102634.66
2023-02-14T00:27:05.682Z,102612.34
2023-02-14T00:28:07.349Z,102631.25
2023-02-14T00:29:12.070Z,102617.56
2023-02-14T00:30:14.147Z,102632.38
2023-02-14T00:31:16.924Z,102622.06
2023-02-14T00:32:18.591Z,102631.34
2023-02-14T00:33:21.159Z,102612.84
2023-02-14T00:34:22.818Z,102628.44
2023-02-14T00:35:25.346Z,102620.41
2023-02-14T00:36:27.180Z,102623.59
2023-02-14T00:37:29.726Z,102630.00
2023-02-14T00:38:31.292Z,102629.66
2023-02-14T00:39:33.835Z,102616.88
2023-02-14T00:40:35.776Z,102623.88
2023-02-14T00:41:38.781Z,102632.34
2023-02-14T00:42:41.992Z,102627.66
2023-02-14T00:43:44.500Z,102618.38
2023-02-14T00:44:46.280Z,102625.78
2023-02-14T00:45:49.555Z,102616.22
2023-02-14T00:46:51.182Z,102630.34
2023-02-14T00:47:53.778Z,102624.59
2023-02-14T00:48:55.466Z,102631.63
2023-02-14T00:50:02.751Z,102627.56
2023-02-14T00:51:04.683Z,102609.91
2023-02-14T00:52:07.210Z,102624.53
2023-02-14T00:53:08.791Z,102607.03
2023-02-14T00:54:11.544Z,102609.91
2023-02-14T00:55:13.135Z,102611.09
2023-02-14T00:56:16.270Z,102609.22
2023-02-14T00:57:17.935Z,102607.06
2023-02-14T00:58:22.103Z,102609.59
2023-02-14T00:59:23.684Z,102608.25
2023-02-14T01:00:26.462Z,102613.63
2023-02-14T01:01:28.181Z,102591.28
2023-02-14T01:02:30.745Z,102604.41
2023-02-14T01:03:32.662Z,102619.34
2023-02-14T01:04:35.988Z,102608.22
2023-02-14T01:05:37.543Z,102606.75
2023-02-14T01:06:40.127Z,102601.84
2023-02-14T01:07:41.680Z,102611.78
2023-02-14T01:08:44.652Z,102597.69
2023-02-14T01:09:47.433Z,102601.72
2023-02-14T01:10:49.029Z,102605.75
2023-02-14T01:11:51.607Z,102591.97
2023-02-14T01:12:53.351Z,102598.66
2023-02-14T01:13:59.492Z,102590.09
2023-02-14T01:15:01.053Z,102596.34
2023-02-14T01:16:07.842Z,102602.22
2023-02-14T01:17:09.464Z,102599.34
2023-02-14T01:18:12.214Z,102598.66
2023-02-14T01:19:14.315Z,102589.94
2023-02-14T01:20:17.148Z,102597.66
2023-02-14T01:21:20.807Z,102603.19
2023-02-14T01:22:23.464Z,102595.09
2023-02-14T01:23:25.459Z,102599.78
2023-02-14T01:24:29.700Z,102598.47
2023-02-14T01:25:31.825Z,102601.00
2023-02-14T01:26:35.936Z,102601.69
2023-02-14T01:27:37.704Z,102600.00
2023-02-14T01:28:40.326Z,102589.28
2023-02-14T01:29:44.359Z,102597.00
2023-02-14T01:30:45.952Z,102596.50
2023-02-14T01:31:49.421Z,102580.03
2023-02-14T01:32:51.059Z,102594.19
2023-02-14T01:33:54.656Z,102588.13
2023-02-14T01:34:56.245Z,102597.38
2023-02-14T01:36:00.676Z,102580.06
2023-02-14T01:37:03.498Z,102606.28
2023-02-14T01:38:05.037Z,102597.53
2023-02-14T01:39:10.140Z,102599.72
2023-02-14T01:40:13.947Z,102587.28
2023-02-14T01:41:16.587Z,102588.78
2023-02-14T01:42:18.244Z,102592.63
2023-02-14T01:43:20.929Z,102587.41
2023-02-14T01:45:07.527Z,102597.34
2023-02-14T01:46:10.919Z,102598.97
2023-02-14T01:47:13.665Z,102596.22
2023-02-14T01:48:17.253Z,102596.53
2023-02-14T01:49:25.692Z,102579.81
2023-02-14T01:50:34.242Z,102606.84
2023-02-14T01:51:39.546Z,102591.59
2023-02-14T01:52:49.403Z,102587.25
2023-02-14T01:53:53.324Z,102583.63
2023-02-14T01:54:58.402Z,102578.41
2023-02-14T01:56:04.694Z,102592.28
2023-02-14T01:57:09.749Z,102578.91
2023-02-14T01:58:16.442Z,102585.66
2023-02-14T01:59:21.182Z,102576.03
2023-02-14T02:00:45.354Z,102581.34
2023-02-14T02:01:56.975Z,102591.41
2023-02-14T02:03:00.009Z,102590.56
2023-02-14T02:04:08.227Z,102581.69
2023-02-14T02:05:10.201Z,102594.38
2023-02-14T02:06:17.630Z,102580.59
2023-02-14T02:07:23.740Z,102588.53
2023-02-14T02:08:27.349Z,102591.63
2023-02-14T02:09:35.606Z,102586.63
2023-02-14T02:10:37.223Z,102578.78
2023-02-14T02:11:40.168Z,102581.16
2023-02-14T02:12:42.216Z,102586.53
2023-02-14T02:13:44.778Z,102582.50
2023-02-14T02:14:50.900Z,102587.53
2023-02-14T02:16:07.980Z,102578.34
2023-02-14T02:17:26.335Z,102575.78
2023-02-14T02:18:42.070Z,102573.44
2023-02-14T02:20:25.636Z,102580.34
2023-02-14T02:22:05.438Z,102584.19
2023-02-14T02:23:33.355Z,102579.69
2023-02-14T02:24:48.447Z,102576.16
2023-02-14T02:26:22.360Z,102578.16
2023-02-14T02:27:39.597Z,102576.81
2023-02-14T02:29:08.810Z,102569.78
2023-02-14T02:30:54.108Z,102562.19
2023-02-14T02:32:26.538Z,102581.84
2023-02-14T02:34:03.758Z,102581.72
2023-02-14T02:35:40.814Z,102581.06
2023-02-14T02:37:04.889Z,102577.50
2023-02-14T02:38:23.248Z,102581.03
2023-02-14T02:39:41.003Z,102557.97
2023-02-14T02:40:52.628Z,102566.38
2023-02-14T02:42:13.150Z,102561.34
2023-02-14T02:43:27.533Z,102572.63
2023-02-14T02:44:40.837Z,102574.66
2023-02-14T02:46:08.377Z,102572.81
2023-02-14T02:47:20.370Z,102567.09
2023-02-14T02:48:26.213Z,102581.75
2023-02-14T02:49:54.970Z,102570.13
2023-02-14T02:51:17.547Z,102566.75
2023-02-14T02:52:44.812Z,102572.47
2023-02-14T02:53:54.094Z,102573.00
2023-02-14T02:55:01.010Z,102570.78
2023-02-14T02:56:26.624Z,102566.44
2023-02-14T02:57:34.674Z,102556.19
2023-02-14T02:58:40.199Z,102561.72
2023-02-14T02:59:47.176Z,102571.47
2023-02-14T03:00:52.058Z,102570.78
2023-02-14T03:02:00.697Z,102572.81
2023-02-14T03:03:20.991Z,102574.16
2023-02-14T03:04:41.879Z,102566.94
2023-02-14T03:05:44.039Z,102561.72
2023-02-14T03:06:49.050Z,102563.41
2023-02-14T03:07:51.016Z,102571.13
2023-02-14T03:08:55.251Z,102563.75
2023-02-14T03:09:58.970Z,102558.38
2023-02-14T03:11:04.125Z,102564.41
2023-02-14T03:12:20.002Z,102566.44
2023-02-14T03:13:58.480Z,102567.28
2023-02-14T03:15:08.595Z,102569.44
2023-02-14T03:16:28.283Z,102568.75
2023-02-14T03:17:39.962Z,102567.78
2023-02-14T03:18:59.046Z,102565.41
2023-02-14T03:20:14.540Z,102575.50
2023-02-14T03:21:26.005Z,102579.06
2023-02-14T03:22:43.746Z,102573.81
2023-02-14T03:23:53.842Z,102564.88
2023-02-14T03:24:58.436Z,102580.31
2023-02-14T03:26:12.647Z,102580.66
2023-02-14T03:27:20.986Z,102570.09
2023-02-14T03:28:31.056Z,102573.81
2023-02-14T03:29:44.631Z,102576.38
2023-02-14T03:30:53.839Z,102571.47
2023-02-14T03:32:01.158Z,102577.19
2023-02-14T03:33:08.055Z,102577.19
2023-02-14T03:34:15.424Z,102568.09
2023-02-14T03:35:23.958Z,102574.34
2023-02-14T03:36:31.736Z,102561.72
2023-02-14T03:37:41.653Z,102558.00
2023-02-14T03:38:48.570Z,102569.13
2023-02-14T03:39:59.584Z,102568.47
2023-02-14T03:41:05.486Z,102575.03
2023-02-14T03:42:12.603Z,102575.50
2023-02-14T03:43:19.888Z,102566.09
2023-02-14T03:44:25.846Z,102555.13
2023-02-14T03:45:33.590Z,102576.69
2023-02-14T03:46:40.731Z,102576.00
2023-02-14T03:47:46.029Z,102571.13
2023-02-14T03:48:51.573Z,102585.25
2023-02-14T03:49:59.142Z,102576.50
2023-02-14T03:51:02.819Z,102576.16
2023-02-14T03:52:08.169Z,102574.50
2023-02-14T03:53:13.457Z,102569.63
2023-02-14T03:54:17.457Z,102576.16
2023-02-14T03:55:25.034Z,102581.22
2023-02-14T03:56:33.821Z,102577.19
2023-02-14T03:57:40.289Z,102558.84
2023-02-14T03:58:47.851Z,102577.31
2023-02-14T03:59:50.080Z,102566.00
2023-02-14T04:00:57.282Z,102571.19
2023-02-14T04:02:06.156Z,102559.47
2023-02-14T04:03:12.847Z,102571.03
2023-02-14T04:04:15.964Z,102563.81
2023-02-14T04:05:22.439Z,102569.41
2023-02-14T04:06:24.106Z,102556.16
2023-02-14T04:07:26.773Z,102569.09
2023-02-14T04:08:30.318Z,102564.03
2023-02-14T04:09:32.839Z,102570.63
2023-02-14T04:10:34.378Z,102552.63
2023-02-14T04:11:38.534Z,102552.13
2023-02-14T04:12:40.122Z,102548.94
2023-02-14T04:13:42.645Z,102563.06
2023-02-14T04:14:44.343Z,102552.81
2023-02-14T04:15:47.060Z,102559.19
2023-02-14T04:17:03.597Z,102564.75
2023-02-14T04:18:29.081Z,102552.47
2023-02-14T04:19:30.632Z,102564.41
2023-02-14T04:20:34.079Z,102561.88
2023-02-14T04:21:35.664Z,102560.69
2023-02-14T04:22:38.229Z,102551.97
2023-02-14T04:23:41.148Z,102553.00
2023-02-14T04:24:43.951Z,102556.00
2023-02-14T04:25:46.529Z,102550.09
2023-02-14T04:27:10.579Z,102541.34
2023-02-14T04:28:14.040Z,102547.06
2023-02-14T04:29:15.585Z,102538.66
2023-02-14T04:30:20.960Z,102547.72
2023-02-14T04:31:22.826Z,102540.19
2023-02-14T04:32:25.603Z,102540.31
2023-02-14T04:33:27.254Z,102539.28
2023-02-14T04:34:29.872Z,102544.69
2023-02-14T04:35:31.569Z,102559.16
2023-02-14T04:36:34.163Z,102544.53
2023-02-14T04:37:35.786Z,102536.31
2023-02-14T04:38:38.722Z,102543.19
2023-02-14T04:39:41.660Z,102542.34
2023-02-14T04:40:45.267Z,102541.81
2023-02-14T04:41:46.917Z,102536.97
2023-02-14T04:42:49.647Z,102532.75
2023-02-14T04:43:51.339Z,102538.81
2023-02-14T04:44:53.988Z,102533.25
2023-02-14T04:45:55.900Z,102518.97
2023-02-14T04:47:00.339Z,102541.00
2023-02-14T04:48:04.337Z,102534.78
2023-02-14T04:49:06.857Z,102541.63
2023-02-14T04:50:11.914Z,102528.06
2023-02-14T04:51:13.663Z,102531.88
2023-02-14T04:52:16.654Z,102527.72
2023-02-14T04:53:19.482Z,102521.00
2023-02-14T04:54:22.068Z,102508.88
2023-02-14T04:55:26.355Z,102532.53
2023-02-14T04:56:29.211Z,102538.75
2023-02-14T04:57:32.312Z,102517.72
2023-02-14T04:58:33.999Z,102532.19
2023-02-14T04:59:36.630Z,102524.13
2023-02-14T05:00:38.213Z,102538.78
2023-02-14T05:01:40.923Z,102527.84
2023-02-14T05:02:42.474Z,102536.59
2023-02-14T05:03:45.078Z,102534.56
2023-02-14T05:04:49.901Z,102530.50
2023-02-14T05:05:51.757Z,102514.84
2023-02-14T05:06:54.313Z,102519.91
2023-02-14T05:07:56.203Z,102530.00
2023-02-14T05:08:58.846Z,102533.00
2023-02-14T05:10:00.435Z,102531.00
2023-02-14T05:11:04.398Z,102534.03
2023-02-14T05:12:07.484Z,102518.25
2023-02-14T05:13:09.170Z,102511.22
2023-02-14T05:14:11.805Z,102515.56
2023-02-14T05:15:13.396Z,102530.84
2023-02-14T05:16:15.967Z,102529.50
2023-02-14T05:17:17.892Z,102521.22
2023-02-14T05:18:20.418Z,102516.81
2023-02-14T05:19:22.274Z,102521.50
2023-02-14T05:20:24.755Z,102514.13
2023-02-14T05:21:28.501Z,102515.16
2023-02-14T05:22:30.089Z,102514.03
2023-02-14T05:23:32.656Z,102521.56
2023-02-14T05:24:34.206Z,102514.66
2023-02-14T05:25:36.676Z,102512.13
2023-02-14T05:26:41.195Z,102525.56
2023-02-14T05:27:43.692Z,102524.88
2023-02-14T05:28:45.367Z,102514.44
2023-02-14T05:29:48.186Z,102521.91
2023-02-14T05:30:50.897Z,102523.28
2023-02-14T05:31:53.660Z,102523.81
2023-02-14T05:32:55.456Z,102510.03
2023-02-14T05:33:59.103Z,102497.22
2023-02-14T05:35:13.151Z,102511.38
2023-02-14T05:36:14.816Z,102512.56
2023-02-14T05:37:20.230Z,102507.69
2023-02-14T05:38:21.955Z,102513.22
2023-02-14T05:39:24.613Z,102502.13
2023-02-14T05:40:26.721Z,102503.47
2023-02-14T05:41:29.498Z,102491.72
2023-02-14T05:42:32.440Z,102503.78
2023-02-14T05:43:39.052Z,102516.59
2023-02-14T05:44:40.672Z,102506.13
2023-02-14T05:45:43.261Z,102517.88
2023-02-14T05:46:45.053Z,102517.88
2023-02-14T05:47:49.647Z,102516.19
2023-02-14T05:48:51.271Z,102511.84
2023-02-14T05:49:53.787Z,102516.31
2023-02-14T05:50:55.388Z,102505.09
2023-02-14T05:51:57.929Z,102516.78
2023-02-14T05:53:00.941Z,102518.78
2023-02-14T05:54:05.001Z,102517.44
2023-02-14T05:55:07.876Z,102515.41
2023-02-14T05:56:10.882Z,102518.75
2023-02-14T05:57:12.499Z,102511.41
2023-02-14T05:58:16.313Z,102501.03
2023-02-14T05:59:17.854Z,102501.03
2023-02-14T06:00:24.143Z,102518.13
2023-02-14T06:01:25.879Z,102511.28
2023-02-14T06:02:28.719Z,102516.13
2023-02-14T06:03:30.316Z,102506.78
2023-02-14T06:04:32.886Z,102533.16
2023-02-14T06:05:34.637Z,102525.41
2023-02-14T06:06:37.271Z,102528.25
2023-02-14T06:07:38.875Z,102525.72
2023-02-14T06:08:41.491Z,102520.56
2023-02-14T06:09:43.270Z,102512.31
2023-02-14T06:10:45.773Z,102521.38
2023-02-14T06:11:48.284Z,102526.25
2023-02-14T06:12:51.385Z,102514.16
2023-02-14T06:13:55.320Z,102522.91
2023-02-14T06:14:56.884Z,102528.72
2023-02-14T06:15:59.894Z,102517.25
2023-02-14T06:17:02.496Z,102521.28
2023-02-14T06:18:05.389Z,102531.13
2023-02-14T06:19:08.008Z,102520.06
2023-02-14T06:20:10.507Z,102523.06
2023-02-14T06:21:13.104Z,102527.25
2023-02-14T06:22:14.768Z,102519.81
2023-02-14T06:23:17.661Z,102530.50
2023-02-14T06:24:19.524Z,102503.13
2023-02-14T06:25:23.067Z,102516.34
2023-02-14T06:26:27.961Z,102531.66
2023-02-14T06:27:30.663Z,102531.66
2023-02-14T06:28:33.553Z,102530.16
2023-02-14T06:29:37.583Z,102535.81
2023-02-14T06:30:40.388Z,102535.00
2023-02-14T06:31:42.441Z,102536.78
2023-02-14T06:32:45.873Z,102532.22
2023-02-14T06:33:48.698Z,102534.28
2023-02-14T06:34:50.399Z,102536.78
2023-02-14T06:35:54.691Z,102508.53
2023-02-14T06:36:56.466Z,102527.03
2023-02-14T06:37:59.023Z,102529.38
2023-02-14T06:39:01.043Z,102518.78
2023-02-14T06:40:03.633Z,102538.59
2023-02-14T06:41:07.206Z,102524.97
2023-02-14T06:42:08.958Z,102535.69
2023-02-14T06:43:11.771Z,102526.41
2023-02-14T06:44:13.329Z,102533.59
2023-02-14T06:45:17.279Z,102539.66
2023-02-14T06:46:19.164Z,102527.66
2023-02-14T06:47:21.812Z,102541.94
2023-02-14T06:48:23.844Z,102522.28
2023-02-14T06:49:26.522Z,102516.81
2023-02-14T06:50:29.152Z,102531.44
2023-02-14T06:51:30.848Z,102525.66
2023-02-14T06:52:33.973Z,102519.97
2023-02-14T06:53:38.058Z,102518.91
2023-02-14T06:54:43.463Z,102524.94
2023-02-14T06:55:45.663Z,102527.03
2023-02-14T06:56:48.215Z,102534.50
2023-02-14T06:57:50.830Z,102532.16
2023-02-14T06:58:53.654Z,102537.16
2023-02-14T06:59:55.423Z,102527.66
2023-02-14T07:01:00.433Z,102524.13
2023-02-14T07:02:02.317Z,102511.25
2023-02-14T07:03:04.966Z,102530.56
2023-02-14T07:04:06.643Z,102534.22
2023-02-14T07:05:09.889Z,102530.81
2023-02-14T07:06:12.549Z,102529.09
2023-02-14T07:07:15.194Z,102531.69
2023-02-14T07:08:17.747Z,102530.19
2023-02-14T07:09:22.003Z,102529.91
2023-02-14T07:10:24.628Z,102506.59
2023-02-14T07:11:28.652Z,102516.50
2023-02-14T07:12:31.384Z,102513.94
2023-02-14T07:13:33.043Z,102539.09
2023-02-14T07:14:37.946Z,102523.13
2023-02-14T07:15:40.824Z,102514.44
2023-02-14T07:16:43.883Z,102525.97
2023-02-14T07:17:47.127Z,102518.97
2023-02-14T07:18:49.344Z,102518.78
2023-02-14T07:19:55.747Z,102521.44
2023-02-14T07:20:58.992Z,102511.31
2023-02-14T07:22:01.872Z,102522.84
2023-02-14T07:23:05.236Z,102511.09
2023-02-14T07:24:08.059Z,102511.50
2023-02-14T07:25:09.740Z,102513.03
2023-02-14T07:26:12.414Z,102517.56
2023-02-14T07:27:14.196Z,102505.00
2023-02-14T07:28:16.959Z,102506.38
2023-02-14T07:29:19.943Z,102501.38
2023-02-14T07:30:23.183Z,102517.50
2023-02-14T07:31:26.028Z,102501.13
2023-02-14T07:32:29.127Z,102512.16
2023-02-14T07:33:31.674Z,102508.16
2023-02-14T07:34:34.336Z,102500.44
2023-02-14T07:35:36.154Z,102518.59
2023-02-14T07:36:38.913Z,102508.97
2023-02-14T07:37:40.512Z,102512.00
2023-02-14T07:38:43.247Z,102515.66
2023-02-14T07:39:46.057Z,102507.66
2023-02-14T07:40:50.700Z,102513.91
2023-02-14T07:41:52.475Z,102495.22
2023-02-14T07:42:56.008Z,102498.19
2023-02-14T07:43:57.618Z,102512.56
2023-02-14T07:45:03.138Z,102499.84
2023-02-14T07:46:06.801Z,102516.91
2023-02-14T07:47:10.840Z,102503.59
2023-02-14T07:48:15.222Z,102503.03
2023-02-14T07:49:17.990Z,102495.06
2023-02-14T07:50:23.383Z,102496.91
2023-02-14T07:51:27.255Z,102511.38
2023-02-14T07:52:28.878Z,102515.88
2023-02-14T07:53:31.735Z,102501.88
2023-02-14T07:54:33.544Z,102505.06
2023-02-14T07:55:36.440Z,102510.13
2023-02-14T07:56:38.980Z,102503.19
2023-02-14T07:57:40.893Z,102510.38
2023-02-14T07:58:43.485Z,102509.88
2023-02-14T07:59:46.006Z,102508.84
2023-02-14T08:00:48.596Z,102497.72
2023-02-14T08:01:50.205Z,102489.91
2023-02-14T08:02:52.900Z,102504.72
2023-02-14T08:03:57.172Z,102505.00
2023-02-14T08:04:58.953Z,102512.66
2023-02-14T08:06:01.630Z,102496.59
2023-02-14T08:07:03.482Z,102492.41
2023-02-14T08:08:06.073Z,102498.91
2023-02-14T08:09:10.173Z,102503.56
2023-02-14T08:10:13.372Z,102516.75
2023-02-14T08:11:37.245Z,102508.09
2023-02-14T08:12:57.662Z,102491.66
2023-02-14T08:14:00.331Z,102513.84
2023-02-14T08:15:16.828Z,102513.50
2023-02-14T08:16:19.683Z,102506.84
2023-02-14T08:17:21.486Z,102501.69
2023-02-14T08:18:24.189Z,102492.63
2023-02-14T08:19:30.581Z,102502.88
2023-02-14T08:20:32.282Z,102495.81
2023-02-14T08:21:35.610Z,102511.13
2023-02-14T08:22:37.215Z,102498.00
2023-02-14T08:23:40.592Z,102484.25
2023-02-14T08:24:42.466Z,102494.44
2023-02-14T08:25:45.157Z,102500.59
2023-02-14T08:26:47.889Z,102509.34
2023-02-14T08:27:49.574Z,102505.94
2023-02-14T08:28:52.351Z,102506.34
2023-02-14T08:29:54.083Z,102489.78
2023-02-14T08:30:56.913Z,102514.63
2023-02-14T08:32:00.576Z,102511.19
2023-02-14T08:33:03.310Z,102507.94
2023-02-14T08:34:05.895Z,102500.81
2023-02-14T08:35:09.335Z,102492.56
2023-02-14T08:36:12.043Z,102505.84
2023-02-14T08:37:13.893Z,102487.28
2023-02-14T08:38:17.990Z,102505.88
2023-02-14T08:39:20.863Z,102491.88
2023-02-14T08:40:22.612Z,102489.69
2023-02-14T08:41:25.704Z,102496.06
2023-02-14T08:42:27.462Z,102499.19
2023-02-14T08:43:30.214Z,102487.34
2023-02-14T08:44:33.602Z,102501.59
2023-02-14T08:45:36.423Z,102501.69
2023-02-14T08:46:39.107Z,102492.03
2023-02-14T08:47:40.918Z,102496.03
2023-02-14T08:48:44.393Z,102495.22
2023-02-14T08:49:47.056Z,102497.19
2023-02-14T08:50:51.197Z,102488.72
2023-02-14T08:51:54.558Z,102486.13
2023-02-14T08:52:57.260Z,102501.44
2023-02-14T08:53:59.829Z,102492.13
2023-02-14T08:55:02.524Z,102490.53
2023-02-14T08:56:05.641Z,102492.47
2023-02-14T08:57:07.527Z,102497.50
2023-02-14T08:58:10.262Z,102494.31
2023-02-14T08:59:15.680Z,102480.19
2023-02-14T09:00:18.872Z,102495.25
2023-02-14T09:01:22.071Z,102481.72
2023-02-14T09:02:25.333Z,102480.41
2023-02-14T09:03:26.840Z,102490.78
2023-02-14T09:04:29.617Z,102481.00
2023-02-14T09:05:32.538Z,102473.16
2023-02-14T09:06:38.613Z,102485.66
2023-02-14T09:07:41.496Z,102492.69
2023-02-14T09:08:44.393Z,102484.00
2023-02-14T09:09:47.167Z,102489.00
2023-02-14T09:10:49.757Z,102490.97
2023-02-14T09:11:52.334Z,102482.06
2023-02-14T09:12:55.091Z,102475.94
2023-02-14T09:13:57.825Z,102483.22
2023-02-14T09:15:00.331Z,102485.75
2023-02-14T09:16:05.023Z,102490.84
2023-02-14T09:17:08.255Z,102491.06
2023-02-14T09:18:10.997Z,102473.06
2023-02-14T09:19:14.927Z,102462.94
2023-02-14T09:20:17.802Z,102484.25
2023-02-14T09:21:24.051Z,102474.84
2023-02-14T09:22:28.643Z,102480.44
2023-02-14T09:23:30.323Z,102474.38
2023-02-14T09:24:34.502Z,102464.25
2023-02-14T09:25:37.266Z,102489.84
2023-02-14T09:26:42.100Z,102481.75
2023-02-14T09:27:44.672Z,102486.28
2023-02-14T09:28:47.632Z,102472.88
2023-02-14T09:29:50.138Z,102483.34
2023-02-14T09:30:54.067Z,102478.94
2023-02-14T09:31:59.739Z,102478.66
2023-02-14T09:33:05.460Z,102484.22
2023-02-14T09:34:08.122Z,102483.84
2023-02-14T09:35:27.967Z,102484.31
2023-02-14T09:36:48.460Z,102475.72
2023-02-14T09:38:10.105Z,102472.31
2023-02-14T09:39:12.908Z,102476.72
2023-02-14T09:40:17.861Z,102483.13
2023-02-14T09:41:49.973Z,102470.06
2023-02-14T09:43:02.295Z,102475.34
2023-02-14T09:44:08.152Z,102477.25
2023-02-14T09:45:14.388Z,102474.06
2023-02-14T09:46:18.968Z,102485.53
2023-02-14T09:47:26.943Z,102475.63
2023-02-14T09:48:36.323Z,102472.28
2023-02-14T09:49:39.890Z,102482.56
2023-02-14T09:50:46.830Z,102468.81
2023-02-14T09:51:53.313Z,102471.56
2023-02-14T09:53:01.533Z,102479.72
2023-02-14T09:54:12.066Z,102477.38
2023-02-14T09:55:17.316Z,102470.31
2023-02-14T09:56:26.714Z,102461.25
2023-02-14T09:57:40.888Z,102479.44
2023-02-14T09:58:51.323Z,102470.41
2023-02-14T09:59:57.877Z,102483.44
2023-02-14T10:01:06.357Z,102472.72
2023-02-14T10:02:34.861Z,102470.25
2023-02-14T10:03:47.055Z,102468.22
2023-02-14T10:05:05.709Z,102471.19
2023-02-14T10:06:18.785Z,102469.50
2023-02-14T10:07:32.275Z,102468.03
2023-02-14T10:08:48.636Z,102454.97
2023-02-14T10:09:58.174Z,102478.78
2023-02-14T10:11:06.757Z,102462.84
2023-02-14T10:12:14.413Z,102480.03
2023-02-14T10:13:24.572Z,102459.44
2023-02-14T10:14:29.907Z,102457.00
2023-02-14T10:15:35.734Z,102465.63
2023-02-14T10:16:42.660Z,102465.44
2023-02-14T10:17:49.157Z,102467.34
2023-02-14T10:18:55.421Z,102457.31
2023-02-14T10:20:02.876Z,102471.69
2023-02-14T10:21:08.896Z,102467.53
2023-02-14T10:22:14.801Z,102461.88
2023-02-14T10:23:31.312Z,102472.94
2023-02-14T10:24:41.767Z,102465.41
2023-02-14T10:25:49.778Z,102471.81
2023-02-14T10:26:57.750Z,102458.34
2023-02-14T10:28:03.101Z,102463.16
2023-02-14T10:29:09.569Z,102447.06
2023-02-14T10:30:17.338Z,102468.53
2023-02-14T10:31:22.837Z,102467.03
2023-02-14T10:32:32.951Z,102450.72
2023-02-14T10:33:39.431Z,102462.47
2023-02-14T10:34:47.874Z,102457.31
2023-02-14T10:35:51.045Z,102451.28
2023-02-14T10:37:05.210Z,102454.97
2023-02-14T10:38:24.084Z,102460.16
2023-02-14T10:39:48.866Z,102454.66
2023-02-14T10:41:23.786Z,102437.50
2023-02-14T10:42:34.224Z,102445.94
2023-02-14T10:43:48.902Z,102447.28
2023-02-14T10:45:00.556Z,102451.66
2023-02-14T10:46:15.951Z,102434.59
2023-02-14T10:47:34.170Z,102453.97
2023-02-14T10:48:52.340Z,102425.00
2023-02-14T10:50:06.570Z,102447.03
2023-02-14T10:51:17.413Z,102446.50
2023-02-14T10:52:24.635Z,102444.22
2023-02-14T10:53:37.178Z,102442.34
2023-02-14T10:54:45.061Z,102452.09
2023-02-14T10:55:54.998Z,102445.56
2023-02-14T10:57:06.134Z,102437.53
2023-02-14T10:58:15.537Z,102433.91
2023-02-14T10:59:23.695Z,102424.72
2023-02-14T11:00:29.560Z,102439.56
2023-02-14T11:01:32.351Z,102441.06
2023-02-14T11:02:37.985Z,102439.66
2023-02-14T11:03:45.294Z,102431.69
2023-02-14T11:04:49.399Z,102422.38
2023-02-14T11:05:52.565Z,102440.25
2023-02-14T11:06:54.486Z,102435.22
2023-02-14T11:07:58.995Z,102442.78
2023-02-14T11:09:01.887Z,102442.22
2023-02-14T11:10:12.533Z,102440.38
2023-02-14T11:11:20.464Z,102438.50
2023-02-14T11:12:34.891Z,102439.00
2023-02-14T11:13:39.382Z,102433.63
2023-02-14T11:14:42.081Z,102423.91
2023-02-14T11:15:49.318Z,102434.16
2023-02-14T11:16:55.341Z,102419.84
2023-02-14T11:18:18.034Z,102429.94
2023-02-14T11:19:25.414Z,102417.56
2023-02-14T11:20:31.035Z,102407.88
2023-02-14T11:21:39.220Z,102414.09
2023-02-14T11:22:41.806Z,102421.03
2023-02-14T11:23:46.533Z,102420.25
2023-02-14T11:24:49.238Z,102422.81
2023-02-14T11:25:55.669Z,102411.66
2023-02-14T11:27:00.774Z,102415.41
2023-02-14T11:28:05.156Z,102407.56
2023-02-14T11:29:14.413Z,102399.38
2023-02-14T11:30:24.225Z,102407.25
2023-02-14T11:31:30.028Z,102411.22
2023-02-14T11:32:37.756Z,102402.78
2023-02-14T11:33:44.239Z,102405.81
2023-02-14T11:34:53.916Z,102404.88
2023-02-14T11:35:57.548Z,102409.56
2023-02-14T11:37:00.905Z,102405.88
2023-02-14T11:38:05.798Z,102404.72
2023-02-14T11:39:25.806Z,102388.25
2023-02-14T11:40:31.056Z,102400.84
2023-02-14T11:41:51.427Z,102405.53
2023-02-14T11:43:02.155Z,102401.75
2023-02-14T11:44:27.145Z,102397.09
2023-02-14T11:45:33.844Z,102399.44
2023-02-14T11:46:44.390Z,102395.06
2023-02-14T11:48:10.416Z,102385.56
2023-02-14T11:49:31.293Z,102390.97
2023-02-14T11:50:33.293Z,102385.31
2023-02-14T11:51:40.677Z,102378.66
2023-02-14T11:52:51.434Z,102376.25
2023-02-14T11:53:55.965Z,102394.38
2023-02-14T11:54:59.666Z,102374.19
2023-02-14T11:56:04.056Z,102388.66
2023-02-14T11:57:14.910Z,102386.22
2023-02-14T11:58:32.395Z,102371.16
2023-02-14T11:59:41.945Z,102382.56
2023-02-14T12:00:51.954Z,102392.75
2023-02-14T12:01:56.756Z,102358.66
2023-02-14T12:03:01.988Z,102364.53
2023-02-14T12:04:07.406Z,102361.97
2023-02-14T12:05:20.703Z,102365.13
2023-02-14T12:06:25.492Z,102358.50
2023-02-14T12:07:31.984Z,102371.03
2023-02-14T12:08:37.607Z,102358.72
2023-02-14T12:09:41.517Z,102353.50
2023-02-14T12:10:44.112Z,102357.78
2023-02-14T12:11:56.513Z,102370.03
2023-02-14T12:13:04.017Z,102350.72
2023-02-14T12:14:07.221Z,102361.88
2023-02-14T12:15:34.773Z,102362.31
2023-02-14T12:16:47.376Z,102358.19
2023-02-14T12:17:53.876Z,102341.28
2023-02-14T12:19:01.159Z,102351.19
2023-02-14T12:20:12.947Z,102347.84
2023-02-14T12:21:26.877Z,102351.41
2023-02-14T12:22:34.400Z,102338.81
2023-02-14T12:23:47.524Z,102344.56
2023-02-14T12:24:58.614Z,102336.94
2023-02-14T12:26:07.362Z,102340.31
2023-02-14T12:27:22.802Z,102335.63
2023-02-14T12:28:31.819Z,102340.44
2023-02-14T12:29:39.913Z,102349.09
2023-02-14T12:30:42.922Z,102336.38
2023-02-14T12:31:47.248Z,102340.06
2023-02-14T12:32:51.538Z,102344.47
2023-02-14T12:33:54.612Z,102321.94
2023-02-14T12:35:03.191Z,102319.63